Terminal Aerodrome Forecast
Issued by NWS

Home | Current Version | Previous Version | Text Only | Print | Product List | Glossary On
Versions: 1 2 3 4 5 6 7 8 9 10 11 12 13 14 15 16 17 18 19 20 21 22 23 24 25 26 27 28 29 30 31
122
FTUS43 KDLH 191910 AAB
TAFHIB
TAF AMD
KHIB 191910Z 1919/2018 14009KT P6SM BKN020
     FM192200 14011KT P6SM BKN035
     FM200300 13011KT P6SM BKN035 WS020/15040KT
     FM200500 15013KT 5SM SHRA VCTS OVC030CB WS020/16045KT
     FM200900 15011KT 4SM SHRA VCTS OVC003CB WS020/17040KT
     FM201100 15009KT 2SM SHRA OVC003
     FM201400 20009KT 4SM -SHRA OVC008
     FM201600 23009KT P6SM -SHRA BKN035=

USA.gov is the U.S. government's official web portal to all federal, state and local government web resources and services.